PWSweather.com
Personal Weather Stations
Station Observations
SD92115WX
El Cerrito Stoneybluff, San Diego, CA 92115

El Cerrito StoneybluffSan Diego, CA 92115

Lat: 32.754096, Lon: -117.066705

Elevation: 420

Station Type: Davis Vantage Vue

http://stoneybluff.com

High Low Average
Temperature 77.9°F25.5°C 64.8°F18.2°C 70.4°F21.3°C
Dew Point 65.5°F18.6°C 54.0°F12.2°C 61.5°F16.4°C
Winds 9.8 mph 15.8 kmh Calm Calm 2.0 mph SSW3.2 kmh SSW
Wind Gusts 15.9 mph25.6 kmh -- 4.0 mph6.4 kmh
Humidity 90% 50% 74%
Pressure 29.88 in1011.9 mb 29.71 in1006.1 mb -
Precipitation 0.00 in0.0 mm - -
Hour Temp Dew Point Humidity Winds Wind Gusts Pressure Precip Precip Rate Daily Precip Total
12:00 AM 69.8°F21.0°C 54.3°F12.4°C 58% Calm Calm -- 29.71 in1006.1 mb 0.00 in0.0 mm 0.00 in0.0 mm 0.00 in0.0 mm
12:05 AM 69.8°F21.0°C 54.3°F12.4°C 58% Calm Calm -- 29.72 in1006.4 mb 0.00 in0.0 mm 0.00 in0.0 mm 0.00 in0.0 mm
12:10 AM 69.6°F20.9°C 54.1°F12.3°C 58% Calm Calm -- 29.72 in1006.4 mb 0.00 in0.0 mm 0.00 in0.0 mm 0.00 in0.0 mm
12:15 AM 69.8°F21.0°C 54.3°F12.4°C 58% Calm Calm -- 29.72 in1006.4 mb 0.00 in0.0 mm 0.00 in0.0 mm 0.00 in0.0 mm
12:20 AM 70.0°F21.1°C 54.5°F12.5°C 58% Calm Calm -- 29.72 in1006.4 mb 0.00 in0.0 mm 0.00 in0.0 mm 0.00 in0.0 mm
12:25 AM 70.2°F21.2°C 54.7°F12.6°C 58% Calm Calm -- 29.72 in1006.4 mb 0.00 in0.0 mm 0.00 in0.0 mm 0.00 in0.0 mm
12:30 AM 70.2°F21.2°C 54.7°F12.6°C 58% Calm Calm -- 29.72 in1006.4 mb 0.00 in0.0 mm 0.00 in0.0 mm 0.00 in0.0 mm
12:35 AM 70.3°F21.3°C 54.3°F12.4°C 57% Calm Calm -- 29.71 in1006.1 mb 0.00 in0.0 mm 0.00 in0.0 mm 0.00 in0.0 mm
12:40 AM 70.3°F21.3°C 54.0°F12.2°C 56% Calm Calm -- 29.71 in1006.1 mb 0.00 in0.0 mm 0.00 in0.0 mm 0.00 in0.0 mm
12:45 AM 70.5°F21.4°C 54.1°F12.3°C 56% Calm Calm -- 29.71 in1006.1 mb 0.00 in0.0 mm 0.00 in0.0 mm 0.00 in0.0 mm
12:50 AM 70.5°F21.4°C 54.5°F12.5°C 57% Calm Calm -- 29.71 in1006.1 mb 0.00 in0.0 mm 0.00 in0.0 mm 0.00 in0.0 mm
12:55 AM 70.3°F21.3°C 54.3°F12.4°C 57% Calm Calm -- 29.71 in1006.1 mb 0.00 in0.0 mm 0.00 in0.0 mm 0.00 in0.0 mm
01:00 AM 70.3°F21.3°C 54.3°F12.4°C 57% Calm Calm -- 29.72 in1006.4 mb 0.00 in0.0 mm 0.00 in0.0 mm 0.00 in0.0 mm
01:05 AM 70.3°F21.3°C 54.9°F12.7°C 58% Calm Calm -- 29.71 in1006.1 mb 0.00 in0.0 mm 0.00 in0.0 mm 0.00 in0.0 mm
01:10 AM 70.3°F21.3°C 54.9°F12.7°C 58% Calm Calm -- 29.71 in1006.1 mb 0.00 in0.0 mm 0.00 in0.0 mm 0.00 in0.0 mm
01:15 AM 70.3°F21.3°C 54.9°F12.7°C 58% Calm Calm -- 29.71 in1006.1 mb 0.00 in0.0 mm 0.00 in0.0 mm 0.00 in0.0 mm
01:20 AM 70.3°F21.3°C 54.9°F12.7°C 58% Calm Calm -- 29.71 in1006.1 mb 0.00 in0.0 mm 0.00 in0.0 mm 0.00 in0.0 mm
01:25 AM 70.3°F21.3°C 54.9°F12.7°C 58% Calm Calm -- 29.71 in1006.1 mb 0.00 in0.0 mm 0.00 in0.0 mm 0.00 in0.0 mm
01:30 AM 70.5°F21.4°C 54.5°F12.5°C 57% Calm Calm 1.1 mph1.8 kmh 29.72 in1006.4 mb 0.00 in0.0 mm 0.00 in0.0 mm 0.00 in0.0 mm
01:35 AM 70.9°F21.6°C 54.3°F12.4°C 56% Calm Calm 2.0 mph3.2 kmh 29.72 in1006.4 mb 0.00 in0.0 mm 0.00 in0.0 mm 0.00 in0.0 mm
01:40 AM 70.9°F21.6°C 54.3°F12.4°C 56% Calm Calm -- 29.71 in1006.1 mb 0.00 in0.0 mm 0.00 in0.0 mm 0.00 in0.0 mm
01:45 AM 70.9°F21.6°C 54.3°F12.4°C 56% Calm Calm -- 29.71 in1006.1 mb 0.00 in0.0 mm 0.00 in0.0 mm 0.00 in0.0 mm
01:50 AM 70.5°F21.4°C 54.5°F12.5°C 57% Calm Calm -- 29.71 in1006.1 mb 0.00 in0.0 mm 0.00 in0.0 mm 0.00 in0.0 mm
01:55 AM 70.5°F21.4°C 54.5°F12.5°C 57% Calm Calm -- 29.71 in1006.1 mb 0.00 in0.0 mm 0.00 in0.0 mm 0.00 in0.0 mm
02:00 AM 70.5°F21.4°C 54.5°F12.5°C 57% Calm Calm -- 29.71 in1006.1 mb 0.00 in0.0 mm 0.00 in0.0 mm 0.00 in0.0 mm
02:05 AM 70.5°F21.4°C 54.5°F12.5°C 57% Calm Calm -- 29.71 in1006.1 mb 0.00 in0.0 mm 0.00 in0.0 mm 0.00 in0.0 mm
02:10 AM 70.5°F21.4°C 54.5°F12.5°C 57% Calm Calm -- 29.71 in1006.1 mb 0.00 in0.0 mm 0.00 in0.0 mm 0.00 in0.0 mm
02:15 AM 70.5°F21.4°C 55.0°F12.8°C 58% 0.4 mph WNW0.6 kmh WNW 1.1 mph1.8 kmh 29.72 in1006.4 mb 0.00 in0.0 mm 0.00 in0.0 mm 0.00 in0.0 mm
02:20 AM 70.5°F21.4°C 55.6°F13.1°C 59% 1.1 mph W1.8 kmh W 3.1 mph5.0 kmh 29.72 in1006.4 mb 0.00 in0.0 mm 0.00 in0.0 mm 0.00 in0.0 mm
02:25 AM 70.5°F21.4°C 56.8°F13.8°C 62% 1.1 mph WNW1.8 kmh WNW 3.1 mph5.0 kmh 29.72 in1006.4 mb 0.00 in0.0 mm 0.00 in0.0 mm 0.00 in0.0 mm
02:30 AM 70.5°F21.4°C 57.7°F14.3°C 64% Calm Calm 3.1 mph5.0 kmh 29.72 in1006.4 mb 0.00 in0.0 mm 0.00 in0.0 mm 0.00 in0.0 mm
02:35 AM 70.3°F21.3°C 57.6°F14.2°C 64% Calm Calm 1.1 mph1.8 kmh 29.72 in1006.4 mb 0.00 in0.0 mm 0.00 in0.0 mm 0.00 in0.0 mm
02:40 AM 70.2°F21.2°C 57.9°F14.4°C 65% Calm Calm -- 29.72 in1006.4 mb 0.00 in0.0 mm 0.00 in0.0 mm 0.00 in0.0 mm
02:45 AM 70.2°F21.2°C 58.3°F14.6°C 66% 2.0 mph WSW3.2 kmh WSW 3.1 mph5.0 kmh 29.72 in1006.4 mb 0.00 in0.0 mm 0.00 in0.0 mm 0.00 in0.0 mm
02:50 AM 70.0°F21.1°C 58.5°F14.7°C 67% 1.8 mph WSW2.9 kmh WSW 4.3 mph6.9 kmh 29.73 in1006.8 mb 0.00 in0.0 mm 0.00 in0.0 mm 0.00 in0.0 mm
02:55 AM 70.0°F21.1°C 59.0°F15.0°C 68% 0.9 mph NW1.4 kmh NW 6.3 mph10.1 kmh 29.73 in1006.8 mb 0.00 in0.0 mm 0.00 in0.0 mm 0.00 in0.0 mm
03:00 AM 69.8°F21.0°C 59.5°F15.3°C 70% 2.9 mph NW4.7 kmh NW 5.4 mph8.7 kmh 29.72 in1006.4 mb 0.00 in0.0 mm 0.00 in0.0 mm 0.00 in0.0 mm
03:05 AM 69.6°F20.9°C 59.7°F15.4°C 71% 1.8 mph W2.9 kmh W 3.1 mph5.0 kmh 29.73 in1006.8 mb 0.00 in0.0 mm 0.00 in0.0 mm 0.00 in0.0 mm
03:10 AM 69.4°F20.8°C 60.1°F15.6°C 72% 1.6 mph NW2.6 kmh NW 6.3 mph10.1 kmh 29.73 in1006.8 mb 0.00 in0.0 mm 0.00 in0.0 mm 0.00 in0.0 mm
03:15 AM 69.3°F20.7°C 60.3°F15.7°C 73% 2.2 mph N3.5 kmh N 4.3 mph6.9 kmh 29.73 in1006.8 mb 0.00 in0.0 mm 0.00 in0.0 mm 0.00 in0.0 mm
03:20 AM 69.3°F20.7°C 61.0°F16.1°C 75% Calm Calm 4.3 mph6.9 kmh 29.73 in1006.8 mb 0.00 in0.0 mm 0.00 in0.0 mm 0.00 in0.0 mm
03:25 AM 69.1°F20.6°C 61.2°F16.2°C 76% 0.4 mph NNW0.6 kmh NNW 3.1 mph5.0 kmh 29.73 in1006.8 mb 0.00 in0.0 mm 0.00 in0.0 mm 0.00 in0.0 mm
03:30 AM 68.9°F20.5°C 61.3°F16.3°C 77% 1.6 mph WNW2.6 kmh WNW 4.3 mph6.9 kmh 29.73 in1006.8 mb 0.00 in0.0 mm 0.00 in0.0 mm 0.00 in0.0 mm
03:35 AM 68.7°F20.4°C 61.9°F16.6°C 79% 0.4 mph NW0.6 kmh NW 4.3 mph6.9 kmh 29.73 in1006.8 mb 0.00 in0.0 mm 0.00 in0.0 mm 0.00 in0.0 mm
03:40 AM 68.5°F20.3°C 61.7°F16.5°C 79% 0.9 mph NW1.4 kmh NW 4.3 mph6.9 kmh 29.73 in1006.8 mb 0.00 in0.0 mm 0.00 in0.0 mm 0.00 in0.0 mm
03:45 AM 68.4°F20.2°C 61.9°F16.6°C 80% 0.2 mph W0.3 kmh W 5.4 mph8.7 kmh 29.73 in1006.8 mb 0.00 in0.0 mm 0.00 in0.0 mm 0.00 in0.0 mm
03:50 AM 68.4°F20.2°C 61.9°F16.6°C 80% 0.7 mph WNW1.1 kmh WNW 3.1 mph5.0 kmh 29.73 in1006.8 mb 0.00 in0.0 mm 0.00 in0.0 mm 0.00 in0.0 mm
03:55 AM 68.2°F20.1°C 62.1°F16.7°C 81% Calm Calm 2.0 mph3.2 kmh 29.73 in1006.8 mb 0.00 in0.0 mm 0.00 in0.0 mm 0.00 in0.0 mm
04:00 AM 68.2°F20.1°C 62.1°F16.7°C 81% Calm Calm -- 29.73 in1006.8 mb 0.00 in0.0 mm 0.00 in0.0 mm 0.00 in0.0 mm
04:05 AM 68.0°F20.0°C 62.2°F16.8°C 82% Calm Calm -- 29.74 in1007.1 mb 0.00 in0.0 mm 0.00 in0.0 mm 0.00 in0.0 mm
04:10 AM 67.8°F19.9°C 62.1°F16.7°C 82% 0.2 mph NNW0.3 kmh NNW 1.1 mph1.8 kmh 29.74 in1007.1 mb 0.00 in0.0 mm 0.00 in0.0 mm 0.00 in0.0 mm
04:15 AM 67.8°F19.9°C 62.1°F16.7°C 82% Calm Calm -- 29.74 in1007.1 mb 0.00 in0.0 mm 0.00 in0.0 mm 0.00 in0.0 mm
04:20 AM 67.6°F19.8°C 62.2°F16.8°C 83% Calm Calm -- 29.75 in1007.5 mb 0.00 in0.0 mm 0.00 in0.0 mm 0.00 in0.0 mm
04:25 AM 67.6°F19.8°C 62.2°F16.8°C 83% Calm Calm -- 29.75 in1007.5 mb 0.00 in0.0 mm 0.00 in0.0 mm 0.00 in0.0 mm
04:30 AM 67.6°F19.8°C 62.6°F17.0°C 84% Calm Calm 2.0 mph3.2 kmh 29.75 in1007.5 mb 0.00 in0.0 mm 0.00 in0.0 mm 0.00 in0.0 mm
04:35 AM 67.6°F19.8°C 63.0°F17.2°C 85% 0.4 mph WNW0.6 kmh WNW 2.0 mph3.2 kmh 29.75 in1007.5 mb 0.00 in0.0 mm 0.00 in0.0 mm 0.00 in0.0 mm
04:40 AM 67.6°F19.8°C 63.0°F17.2°C 85% Calm Calm 1.1 mph1.8 kmh 29.75 in1007.5 mb 0.00 in0.0 mm 0.00 in0.0 mm 0.00 in0.0 mm
04:45 AM 67.6°F19.8°C 63.3°F17.4°C 86% 0.7 mph NNW1.1 kmh NNW 2.0 mph3.2 kmh 29.75 in1007.5 mb 0.00 in0.0 mm 0.00 in0.0 mm 0.00 in0.0 mm
04:50 AM 67.6°F19.8°C 63.3°F17.4°C 86% 0.9 mph NW1.4 kmh NW 3.1 mph5.0 kmh 29.75 in1007.5 mb 0.00 in0.0 mm 0.00 in0.0 mm 0.00 in0.0 mm
04:55 AM 67.8°F19.9°C 63.9°F17.7°C 87% Calm Calm -- 29.75 in1007.5 mb 0.00 in0.0 mm 0.00 in0.0 mm 0.00 in0.0 mm
05:00 AM 67.6°F19.8°C 63.7°F17.6°C 87% Calm Calm -- 29.75 in1007.5 mb 0.00 in0.0 mm 0.00 in0.0 mm 0.00 in0.0 mm
05:05 AM 67.6°F19.8°C 63.7°F17.6°C 87% Calm Calm -- 29.75 in1007.5 mb 0.00 in0.0 mm 0.00 in0.0 mm 0.00 in0.0 mm
05:10 AM 67.6°F19.8°C 63.7°F17.6°C 87% Calm Calm -- 29.76 in1007.8 mb 0.00 in0.0 mm 0.00 in0.0 mm 0.00 in0.0 mm
05:15 AM 67.6°F19.8°C 63.7°F17.6°C 87% Calm Calm -- 29.76 in1007.8 mb 0.00 in0.0 mm 0.00 in0.0 mm 0.00 in0.0 mm
05:20 AM 67.6°F19.8°C 63.7°F17.6°C 87% Calm Calm -- 29.76 in1007.8 mb 0.00 in0.0 mm 0.00 in0.0 mm 0.00 in0.0 mm
05:25 AM 67.6°F19.8°C 64.0°F17.8°C 88% Calm Calm -- 29.76 in1007.8 mb 0.00 in0.0 mm 0.00 in0.0 mm 0.00 in0.0 mm
05:30 AM 67.6°F19.8°C 64.0°F17.8°C 88% Calm Calm -- 29.77 in1008.1 mb 0.00 in0.0 mm 0.00 in0.0 mm 0.00 in0.0 mm
05:35 AM 67.6°F19.8°C 64.0°F17.8°C 88% Calm Calm -- 29.77 in1008.1 mb 0.00 in0.0 mm 0.00 in0.0 mm 0.00 in0.0 mm
05:40 AM 67.6°F19.8°C 64.0°F17.8°C 88% Calm Calm 1.1 mph1.8 kmh 29.76 in1007.8 mb 0.00 in0.0 mm 0.00 in0.0 mm 0.00 in0.0 mm
05:45 AM 67.6°F19.8°C 64.0°F17.8°C 88% Calm Calm -- 29.76 in1007.8 mb 0.00 in0.0 mm 0.00 in0.0 mm 0.00 in0.0 mm
05:50 AM 67.6°F19.8°C 64.0°F17.8°C 88% Calm Calm -- 29.76 in1007.8 mb 0.00 in0.0 mm 0.00 in0.0 mm 0.00 in0.0 mm
05:55 AM 67.6°F19.8°C 63.7°F17.6°C 87% 0.2 mph E0.3 kmh E 1.1 mph1.8 kmh 29.77 in1008.1 mb 0.00 in0.0 mm 0.00 in0.0 mm 0.00 in0.0 mm
06:00 AM 67.6°F19.8°C 63.7°F17.6°C 87% Calm Calm 1.1 mph1.8 kmh 29.77 in1008.1 mb 0.00 in0.0 mm 0.00 in0.0 mm 0.00 in0.0 mm
06:05 AM 67.6°F19.8°C 63.7°F17.6°C 87% Calm Calm -- 29.77 in1008.1 mb 0.00 in0.0 mm 0.00 in0.0 mm 0.00 in0.0 mm
06:10 AM 67.6°F19.8°C 63.3°F17.4°C 86% Calm Calm -- 29.77 in1008.1 mb 0.00 in0.0 mm 0.00 in0.0 mm 0.00 in0.0 mm
06:15 AM 67.8°F19.9°C 63.5°F17.5°C 86% Calm Calm -- 29.77 in1008.1 mb 0.00 in0.0 mm 0.00 in0.0 mm 0.00 in0.0 mm
06:20 AM 68.0°F20.0°C 63.7°F17.6°C 86% Calm Calm -- 29.77 in1008.1 mb 0.00 in0.0 mm 0.00 in0.0 mm 0.00 in0.0 mm
06:25 AM 68.2°F20.1°C 63.9°F17.7°C 86% Calm Calm 1.1 mph1.8 kmh 29.78 in1008.5 mb 0.00 in0.0 mm 0.00 in0.0 mm 0.00 in0.0 mm
06:30 AM 68.4°F20.2°C 63.7°F17.6°C 85% Calm Calm -- 29.78 in1008.5 mb 0.00 in0.0 mm 0.00 in0.0 mm 0.00 in0.0 mm
06:35 AM 68.5°F20.3°C 63.9°F17.7°C 85% Calm Calm -- 29.78 in1008.5 mb 0.00 in0.0 mm 0.00 in0.0 mm 0.00 in0.0 mm
06:40 AM 68.5°F20.3°C 63.5°F17.5°C 84% Calm Calm -- 29.78 in1008.5 mb 0.00 in0.0 mm 0.00 in0.0 mm 0.00 in0.0 mm
06:45 AM 68.7°F20.4°C 63.7°F17.6°C 84% Calm Calm -- 29.78 in1008.5 mb 0.00 in0.0 mm 0.00 in0.0 mm 0.00 in0.0 mm
06:50 AM 68.7°F20.4°C 63.3°F17.4°C 83% Calm Calm -- 29.78 in1008.5 mb 0.00 in0.0 mm 0.00 in0.0 mm 0.00 in0.0 mm
06:55 AM 68.9°F20.5°C 63.5°F17.5°C 83% Calm Calm -- 29.78 in1008.5 mb 0.00 in0.0 mm 0.00 in0.0 mm 0.00 in0.0 mm
07:00 AM 69.1°F20.6°C 63.3°F17.4°C 82% Calm Calm -- 29.78 in1008.5 mb 0.00 in0.0 mm 0.00 in0.0 mm 0.00 in0.0 mm
07:05 AM 69.3°F20.7°C 63.1°F17.3°C 81% Calm Calm -- 29.79 in1008.8 mb 0.00 in0.0 mm 0.00 in0.0 mm 0.00 in0.0 mm
07:10 AM 69.4°F20.8°C 63.0°F17.2°C 80% Calm Calm -- 29.79 in1008.8 mb 0.00 in0.0 mm 0.00 in0.0 mm 0.00 in0.0 mm
07:15 AM 69.6°F20.9°C 62.8°F17.1°C 79% Calm Calm -- 29.79 in1008.8 mb 0.00 in0.0 mm 0.00 in0.0 mm 0.00 in0.0 mm
07:20 AM 70.0°F21.1°C 62.8°F17.1°C 78% Calm Calm -- 29.79 in1008.8 mb 0.00 in0.0 mm 0.00 in0.0 mm 0.00 in0.0 mm
07:25 AM 70.2°F21.2°C 62.6°F17.0°C 77% Calm Calm 2.0 mph3.2 kmh 29.79 in1008.8 mb 0.00 in0.0 mm 0.00 in0.0 mm 0.00 in0.0 mm
07:30 AM 70.3°F21.3°C 62.4°F16.9°C 76% Calm Calm -- 29.79 in1008.8 mb 0.00 in0.0 mm 0.00 in0.0 mm 0.00 in0.0 mm
07:35 AM 70.5°F21.4°C 62.2°F16.8°C 75% Calm Calm -- 29.79 in1008.8 mb 0.00 in0.0 mm 0.00 in0.0 mm 0.00 in0.0 mm
07:40 AM 70.9°F21.6°C 62.2°F16.8°C 74% Calm Calm -- 29.79 in1008.8 mb 0.00 in0.0 mm 0.00 in0.0 mm 0.00 in0.0 mm
07:45 AM 71.2°F21.8°C 62.6°F17.0°C 74% Calm Calm -- 29.79 in1008.8 mb 0.00 in0.0 mm 0.00 in0.0 mm 0.00 in0.0 mm
07:50 AM 71.4°F21.9°C 62.2°F16.8°C 73% Calm Calm -- 29.79 in1008.8 mb 0.00 in0.0 mm 0.00 in0.0 mm 0.00 in0.0 mm
07:55 AM 71.4°F21.9°C 61.9°F16.6°C 72% Calm Calm -- 29.79 in1008.8 mb 0.00 in0.0 mm 0.00 in0.0 mm 0.00 in0.0 mm
08:00 AM 71.8°F22.1°C 61.9°F16.6°C 71% Calm Calm -- 29.80 in1009.1 mb 0.00 in0.0 mm 0.00 in0.0 mm 0.00 in0.0 mm
08:05 AM 72.0°F22.2°C 61.7°F16.5°C 70% Calm Calm -- 29.80 in1009.1 mb 0.00 in0.0 mm 0.00 in0.0 mm 0.00 in0.0 mm
08:10 AM 72.3°F22.4°C 61.2°F16.2°C 68% Calm Calm -- 29.80 in1009.1 mb 0.00 in0.0 mm 0.00 in0.0 mm 0.00 in0.0 mm
08:15 AM 72.9°F22.7°C 61.3°F16.3°C 67% Calm Calm -- 29.80 in1009.1 mb 0.00 in0.0 mm 0.00 in0.0 mm 0.00 in0.0 mm
08:20 AM 73.4°F23.0°C 61.3°F16.3°C 66% Calm Calm -- 29.80 in1009.1 mb 0.00 in0.0 mm 0.00 in0.0 mm 0.00 in0.0 mm
08:25 AM 73.8°F23.2°C 61.3°F16.3°C 65% Calm Calm -- 29.80 in1009.1 mb 0.00 in0.0 mm 0.00 in0.0 mm 0.00 in0.0 mm
08:30 AM 74.1°F23.4°C 61.5°F16.4°C 65% Calm Calm -- 29.80 in1009.1 mb 0.00 in0.0 mm 0.00 in0.0 mm 0.00 in0.0 mm
08:35 AM 74.8°F23.8°C 61.9°F16.6°C 64% Calm Calm -- 29.80 in1009.1 mb 0.00 in0.0 mm 0.00 in0.0 mm 0.00 in0.0 mm
08:40 AM 75.2°F24.0°C 61.3°F16.3°C 62% Calm Calm 1.1 mph1.8 kmh 29.80 in1009.1 mb 0.00 in0.0 mm 0.00 in0.0 mm 0.00 in0.0 mm
08:45 AM 75.6°F24.2°C 60.3°F15.7°C 59% Calm Calm 2.0 mph3.2 kmh 29.80 in1009.1 mb 0.00 in0.0 mm 0.00 in0.0 mm 0.00 in0.0 mm
08:50 AM 75.9°F24.4°C 60.1°F15.6°C 58% Calm Calm -- 29.80 in1009.1 mb 0.00 in0.0 mm 0.00 in0.0 mm 0.00 in0.0 mm
08:55 AM 76.3°F24.6°C 59.4°F15.2°C 56% Calm Calm 1.1 mph1.8 kmh 29.80 in1009.1 mb 0.00 in0.0 mm 0.00 in0.0 mm 0.00 in0.0 mm
09:00 AM 76.6°F24.8°C 59.7°F15.4°C 56% Calm Calm 1.1 mph1.8 kmh 29.80 in1009.1 mb 0.00 in0.0 mm 0.00 in0.0 mm 0.00 in0.0 mm
09:05 AM 77.4°F25.2°C 58.8°F14.9°C 53% 1.3 mph SW2.1 kmh SW 3.1 mph5.0 kmh 29.81 in1009.5 mb 0.00 in0.0 mm 0.00 in0.0 mm 0.00 in0.0 mm
09:10 AM 77.4°F25.2°C 58.3°F14.6°C 52% 0.2 mph SW0.3 kmh SW 3.1 mph5.0 kmh 29.81 in1009.5 mb 0.00 in0.0 mm 0.00 in0.0 mm 0.00 in0.0 mm
09:15 AM 77.7°F25.4°C 58.1°F14.5°C 51% Calm Calm 2.0 mph3.2 kmh 29.81 in1009.5 mb 0.00 in0.0 mm 0.00 in0.0 mm 0.00 in0.0 mm
09:20 AM 77.7°F25.4°C 57.6°F14.2°C 50% 0.7 mph S1.1 kmh S 3.1 mph5.0 kmh 29.81 in1009.5 mb 0.00 in0.0 mm 0.00 in0.0 mm 0.00 in0.0 mm
09:25 AM 77.9°F25.5°C 57.7°F14.3°C 50% 1.6 mph SW2.6 kmh SW 4.3 mph6.9 kmh 29.81 in1009.5 mb 0.00 in0.0 mm 0.00 in0.0 mm 0.00 in0.0 mm
09:30 AM 77.5°F25.3°C 58.5°F14.7°C 52% 2.2 mph WSW3.5 kmh WSW 5.4 mph8.7 kmh 29.81 in1009.5 mb 0.00 in0.0 mm 0.00 in0.0 mm 0.00 in0.0 mm
09:35 AM 77.2°F25.1°C 60.3°F15.7°C 56% 4.7 mph WSW7.6 kmh WSW 9.6 mph15.4 kmh 29.82 in1009.8 mb 0.00 in0.0 mm 0.00 in0.0 mm 0.00 in0.0 mm
09:40 AM 76.6°F24.8°C 59.7°F15.4°C 56% 3.1 mph SW5.0 kmh SW 9.6 mph15.4 kmh 29.82 in1009.8 mb 0.00 in0.0 mm 0.00 in0.0 mm 0.00 in0.0 mm
09:45 AM 76.5°F24.7°C 59.5°F15.3°C 56% Calm Calm 5.4 mph8.7 kmh 29.82 in1009.8 mb 0.00 in0.0 mm 0.00 in0.0 mm 0.00 in0.0 mm
09:50 AM 76.3°F24.6°C 62.8°F17.1°C 63% 7.2 mph SW11.6 kmh SW 10.5 mph16.9 kmh 29.82 in1009.8 mb 0.00 in0.0 mm 0.00 in0.0 mm 0.00 in0.0 mm
09:55 AM 75.0°F23.9°C 63.0°F17.2°C 66% 5.4 mph SW8.7 kmh SW 12.8 mph20.6 kmh 29.82 in1009.8 mb 0.00 in0.0 mm 0.00 in0.0 mm 0.00 in0.0 mm
10:00 AM 74.5°F23.6°C 62.8°F17.1°C 67% 5.8 mph WSW9.3 kmh WSW 10.5 mph16.9 kmh 29.82 in1009.8 mb 0.00 in0.0 mm 0.00 in0.0 mm 0.00 in0.0 mm
10:05 AM 74.5°F23.6°C 63.1°F17.3°C 68% 4.3 mph WSW6.9 kmh WSW 10.5 mph16.9 kmh 29.82 in1009.8 mb 0.00 in0.0 mm 0.00 in0.0 mm 0.00 in0.0 mm
10:10 AM 74.3°F23.5°C 63.1°F17.3°C 68% 5.4 mph SW8.7 kmh SW 10.5 mph16.9 kmh 29.82 in1009.8 mb 0.00 in0.0 mm 0.00 in0.0 mm 0.00 in0.0 mm
10:15 AM 74.3°F23.5°C 63.9°F17.7°C 70% 6.0 mph SSW9.7 kmh SSW 9.6 mph15.4 kmh 29.83 in1010.2 mb 0.00 in0.0 mm 0.00 in0.0 mm 0.00 in0.0 mm
10:20 AM 74.3°F23.5°C 64.2°F17.9°C 71% 8.3 mph SW13.4 kmh SW 12.8 mph20.6 kmh 29.82 in1009.8 mb 0.00 in0.0 mm 0.00 in0.0 mm 0.00 in0.0 mm
10:25 AM 73.9°F23.3°C 64.4°F18.0°C 72% 7.6 mph SSW12.2 kmh SSW 13.9 mph22.4 kmh 29.83 in1010.2 mb 0.00 in0.0 mm 0.00 in0.0 mm 0.00 in0.0 mm
10:30 AM 73.8°F23.2°C 64.9°F18.3°C 74% 7.4 mph SW11.9 kmh SW 11.6 mph18.7 kmh 29.83 in1010.2 mb 0.00 in0.0 mm 0.00 in0.0 mm 0.00 in0.0 mm
10:35 AM 73.6°F23.1°C 64.8°F18.2°C 74% 6.5 mph SSW10.5 kmh SSW 13.9 mph22.4 kmh 29.83 in1010.2 mb 0.00 in0.0 mm 0.00 in0.0 mm 0.00 in0.0 mm
10:40 AM 73.9°F23.3°C 64.8°F18.2°C 73% 5.4 mph SW8.7 kmh SW 11.6 mph18.7 kmh 29.83 in1010.2 mb 0.00 in0.0 mm 0.00 in0.0 mm 0.00 in0.0 mm
10:45 AM 74.7°F23.7°C 65.5°F18.6°C 73% 6.5 mph WSW10.5 kmh WSW 11.6 mph18.7 kmh 29.82 in1009.8 mb 0.00 in0.0 mm 0.00 in0.0 mm 0.00 in0.0 mm
10:50 AM 74.8°F23.8°C 64.4°F18.0°C 70% 6.0 mph SW9.7 kmh SW 11.6 mph18.7 kmh 29.82 in1009.8 mb 0.00 in0.0 mm 0.00 in0.0 mm 0.00 in0.0 mm
10:55 AM 75.6°F24.2°C 64.8°F18.2°C 69% 5.8 mph NW9.3 kmh NW 9.6 mph15.4 kmh 29.83 in1010.2 mb 0.00 in0.0 mm 0.00 in0.0 mm 0.00 in0.0 mm
11:00 AM 75.4°F24.1°C 64.6°F18.1°C 69% 4.5 mph WSW7.2 kmh WSW 11.6 mph18.7 kmh 29.83 in1010.2 mb 0.00 in0.0 mm 0.00 in0.0 mm 0.00 in0.0 mm
11:05 AM 75.7°F24.3°C 64.8°F18.2°C 69% 6.5 mph SW10.5 kmh SW 11.6 mph18.7 kmh 29.82 in1009.8 mb 0.00 in0.0 mm 0.00 in0.0 mm 0.00 in0.0 mm
11:10 AM 75.7°F24.3°C 64.8°F18.2°C 69% 6.0 mph SSW9.7 kmh SSW 10.5 mph16.9 kmh 29.82 in1009.8 mb 0.00 in0.0 mm 0.00 in0.0 mm 0.00 in0.0 mm
11:15 AM 76.1°F24.5°C 64.8°F18.2°C 68% 5.6 mph S9.0 kmh S 9.6 mph15.4 kmh 29.82 in1009.8 mb 0.00 in0.0 mm 0.00 in0.0 mm 0.00 in0.0 mm
11:20 AM 76.3°F24.6°C 64.9°F18.3°C 68% 6.0 mph WSW9.7 kmh WSW 9.6 mph15.4 kmh 29.82 in1009.8 mb 0.00 in0.0 mm 0.00 in0.0 mm 0.00 in0.0 mm
11:25 AM 76.5°F24.7°C 64.8°F18.2°C 67% 5.8 mph WSW9.3 kmh WSW 11.6 mph18.7 kmh 29.82 in1009.8 mb 0.00 in0.0 mm 0.00 in0.0 mm 0.00 in0.0 mm
11:30 AM 76.6°F24.8°C 65.3°F18.5°C 68% 5.8 mph SW9.3 kmh SW 12.8 mph20.6 kmh 29.81 in1009.5 mb 0.00 in0.0 mm 0.00 in0.0 mm 0.00 in0.0 mm
11:35 AM 76.5°F24.7°C 64.8°F18.2°C 67% 3.4 mph SW5.5 kmh SW 13.9 mph22.4 kmh 29.82 in1009.8 mb 0.00 in0.0 mm 0.00 in0.0 mm 0.00 in0.0 mm
11:40 AM 76.6°F24.8°C 64.0°F17.8°C 65% 6.7 mph SSW10.8 kmh SSW 13.9 mph22.4 kmh 29.82 in1009.8 mb 0.00 in0.0 mm 0.00 in0.0 mm 0.00 in0.0 mm
11:45 AM 76.6°F24.8°C 63.5°F17.5°C 64% 6.9 mph S11.1 kmh S 11.6 mph18.7 kmh 29.82 in1009.8 mb 0.00 in0.0 mm 0.00 in0.0 mm 0.00 in0.0 mm
11:51 AM 76.6°F24.8°C 64.0°F17.8°C 65% 6.7 mph SSW10.8 kmh SSW 12.8 mph20.6 kmh 29.82 in1009.8 mb 0.00 in0.0 mm 0.00 in0.0 mm 0.00 in0.0 mm
11:56 AM 76.5°F24.7°C 63.0°F17.2°C 63% 8.1 mph SSW13.0 kmh SSW 12.8 mph20.6 kmh 29.82 in1009.8 mb 0.00 in0.0 mm 0.00 in0.0 mm 0.00 in0.0 mm
12:01 PM 76.6°F24.8°C 62.6°F17.0°C 62% 5.4 mph SSW8.7 kmh SSW 14.8 mph23.8 kmh 29.82 in1009.8 mb 0.00 in0.0 mm 0.00 in0.0 mm 0.00 in0.0 mm
12:06 PM 76.6°F24.8°C 61.7°F16.5°C 60% 7.6 mph SW12.2 kmh SW 12.8 mph20.6 kmh 29.82 in1009.8 mb 0.00 in0.0 mm 0.00 in0.0 mm 0.00 in0.0 mm
12:11 PM 76.6°F24.8°C 62.6°F17.0°C 62% 7.4 mph SW11.9 kmh SW 12.8 mph20.6 kmh 29.82 in1009.8 mb 0.00 in0.0 mm 0.00 in0.0 mm 0.00 in0.0 mm
12:16 PM 77.2°F25.1°C 62.2°F16.8°C 60% 6.7 mph WSW10.8 kmh WSW 11.6 mph18.7 kmh 29.82 in1009.8 mb 0.00 in0.0 mm 0.00 in0.0 mm 0.00 in0.0 mm
12:21 PM 77.5°F25.3°C 63.5°F17.5°C 62% 7.4 mph SW11.9 kmh SW 12.8 mph20.6 kmh 29.82 in1009.8 mb 0.00 in0.0 mm 0.00 in0.0 mm 0.00 in0.0 mm
12:26 PM 77.4°F25.2°C 64.2°F17.9°C 64% 9.8 mph SW15.8 kmh SW 14.8 mph23.8 kmh 29.82 in1009.8 mb 0.00 in0.0 mm 0.00 in0.0 mm 0.00 in0.0 mm
12:31 PM 76.3°F24.6°C 63.7°F17.6°C 65% 8.3 mph SW13.4 kmh SW 13.9 mph22.4 kmh 29.82 in1009.8 mb 0.00 in0.0 mm 0.00 in0.0 mm 0.00 in0.0 mm
12:36 PM 75.6°F24.2°C 63.9°F17.7°C 67% 9.6 mph SW15.4 kmh SW 15.9 mph25.6 kmh 29.82 in1009.8 mb 0.00 in0.0 mm 0.00 in0.0 mm 0.00 in0.0 mm
12:41 PM 75.4°F24.1°C 63.1°F17.3°C 66% 8.5 mph SSW13.7 kmh SSW 13.9 mph22.4 kmh 29.82 in1009.8 mb 0.00 in0.0 mm 0.00 in0.0 mm 0.00 in0.0 mm
12:46 PM 75.9°F24.4°C 64.2°F17.9°C 67% 7.4 mph SW11.9 kmh SW 12.8 mph20.6 kmh 29.82 in1009.8 mb 0.00 in0.0 mm 0.00 in0.0 mm 0.00 in0.0 mm
12:51 PM 76.3°F24.6°C 63.7°F17.6°C 65% 8.5 mph SSW13.7 kmh SSW 13.9 mph22.4 kmh 29.82 in1009.8 mb 0.00 in0.0 mm 0.00 in0.0 mm 0.00 in0.0 mm
12:56 PM 76.1°F24.5°C 63.9°F17.7°C 66% 7.8 mph SW12.6 kmh SW 12.8 mph20.6 kmh 29.82 in1009.8 mb 0.00 in0.0 mm 0.00 in0.0 mm 0.00 in0.0 mm
01:01 PM 75.9°F24.4°C 63.7°F17.6°C 66% 9.8 mph WSW15.8 kmh WSW 13.9 mph22.4 kmh 29.82 in1009.8 mb 0.00 in0.0 mm 0.00 in0.0 mm 0.00 in0.0 mm
01:06 PM 76.5°F24.7°C 63.3°F17.4°C 64% 8.1 mph SW13.0 kmh SW 13.9 mph22.4 kmh 29.82 in1009.8 mb 0.00 in0.0 mm 0.00 in0.0 mm 0.00 in0.0 mm
01:11 PM 76.5°F24.7°C 63.3°F17.4°C 64% 8.3 mph SSW13.4 kmh SSW 14.8 mph23.8 kmh 29.82 in1009.8 mb 0.00 in0.0 mm 0.00 in0.0 mm 0.00 in0.0 mm
01:16 PM 76.6°F24.8°C 63.5°F17.5°C 64% 8.9 mph SW14.3 kmh SW 14.8 mph23.8 kmh 29.82 in1009.8 mb 0.00 in0.0 mm 0.00 in0.0 mm 0.00 in0.0 mm
01:21 PM 75.9°F24.4°C 63.7°F17.6°C 66% 9.8 mph SW15.8 kmh SW 15.9 mph25.6 kmh 29.82 in1009.8 mb 0.00 in0.0 mm 0.00 in0.0 mm 0.00 in0.0 mm
01:26 PM 75.4°F24.1°C 63.7°F17.6°C 67% 8.9 mph WSW14.3 kmh WSW 13.9 mph22.4 kmh 29.83 in1010.2 mb 0.00 in0.0 mm 0.00 in0.0 mm 0.00 in0.0 mm
01:31 PM 74.7°F23.7°C 63.0°F17.2°C 67% 9.6 mph SSW15.4 kmh SSW 14.8 mph23.8 kmh 29.83 in1010.2 mb 0.00 in0.0 mm 0.00 in0.0 mm 0.00 in0.0 mm
01:36 PM 73.9°F23.3°C 63.1°F17.3°C 69% 8.9 mph SSW14.3 kmh SSW 13.9 mph22.4 kmh 29.83 in1010.2 mb 0.00 in0.0 mm 0.00 in0.0 mm 0.00 in0.0 mm
01:41 PM 73.6°F23.1°C 63.1°F17.3°C 70% 8.5 mph WSW13.7 kmh WSW 12.8 mph20.6 kmh 29.83 in1010.2 mb 0.00 in0.0 mm 0.00 in0.0 mm 0.00 in0.0 mm
01:46 PM 73.6°F23.1°C 64.0°F17.8°C 72% 6.7 mph SSW10.8 kmh SSW 11.6 mph18.7 kmh 29.83 in1010.2 mb 0.00 in0.0 mm 0.00 in0.0 mm 0.00 in0.0 mm
01:51 PM 73.0°F22.8°C 63.9°F17.7°C 73% 6.5 mph SW10.5 kmh SW 13.9 mph22.4 kmh 29.83 in1010.2 mb 0.00 in0.0 mm 0.00 in0.0 mm 0.00 in0.0 mm
01:56 PM 72.7°F22.6°C 63.9°F17.7°C 74% 7.2 mph SW11.6 kmh SW 11.6 mph18.7 kmh 29.83 in1010.2 mb 0.00 in0.0 mm 0.00 in0.0 mm 0.00 in0.0 mm
02:01 PM 72.5°F22.5°C 63.7°F17.6°C 74% 6.0 mph WSW9.7 kmh WSW 11.6 mph18.7 kmh 29.83 in1010.2 mb 0.00 in0.0 mm 0.00 in0.0 mm 0.00 in0.0 mm
02:06 PM 72.1°F22.3°C 64.2°F17.9°C 76% 4.9 mph SW7.9 kmh SW 11.6 mph18.7 kmh 29.83 in1010.2 mb 0.00 in0.0 mm 0.00 in0.0 mm 0.00 in0.0 mm
02:11 PM 72.1°F22.3°C 64.2°F17.9°C 76% 5.4 mph WSW8.7 kmh WSW 10.5 mph16.9 kmh 29.83 in1010.2 mb 0.00 in0.0 mm 0.00 in0.0 mm 0.00 in0.0 mm
02:16 PM 72.0°F22.2°C 64.0°F17.8°C 76% 6.0 mph S9.7 kmh S 13.9 mph22.4 kmh 29.83 in1010.2 mb 0.00 in0.0 mm 0.00 in0.0 mm 0.00 in0.0 mm
02:21 PM 72.0°F22.2°C 63.7°F17.6°C 75% 6.9 mph SW11.1 kmh SW 11.6 mph18.7 kmh 29.83 in1010.2 mb 0.00 in0.0 mm 0.00 in0.0 mm 0.00 in0.0 mm
02:26 PM 72.0°F22.2°C 64.4°F18.0°C 77% 3.6 mph WSW5.8 kmh WSW 10.5 mph16.9 kmh 29.83 in1010.2 mb 0.00 in0.0 mm 0.00 in0.0 mm 0.00 in0.0 mm
02:31 PM 72.1°F22.3°C 64.2°F17.9°C 76% 4.5 mph WSW7.2 kmh WSW 9.6 mph15.4 kmh 29.83 in1010.2 mb 0.00 in0.0 mm 0.00 in0.0 mm 0.00 in0.0 mm
02:36 PM 73.0°F22.8°C 64.2°F17.9°C 74% 7.2 mph SW11.6 kmh SW 11.6 mph18.7 kmh 29.83 in1010.2 mb 0.00 in0.0 mm 0.00 in0.0 mm 0.00 in0.0 mm
02:41 PM 73.9°F23.3°C 64.4°F18.0°C 72% 5.6 mph SW9.0 kmh SW 11.6 mph18.7 kmh 29.83 in1010.2 mb 0.00 in0.0 mm 0.00 in0.0 mm 0.00 in0.0 mm
02:46 PM 74.5°F23.6°C 64.0°F17.8°C 70% 4.5 mph SE7.2 kmh SE 10.5 mph16.9 kmh 29.83 in1010.2 mb 0.00 in0.0 mm 0.00 in0.0 mm 0.00 in0.0 mm
02:51 PM 74.8°F23.8°C 63.5°F17.5°C 68% 4.3 mph SW6.9 kmh SW 9.6 mph15.4 kmh 29.83 in1010.2 mb 0.00 in0.0 mm 0.00 in0.0 mm 0.00 in0.0 mm
02:56 PM 74.8°F23.8°C 63.1°F17.3°C 67% 4.0 mph WNW6.4 kmh WNW 12.8 mph20.6 kmh 29.83 in1010.2 mb 0.00 in0.0 mm 0.00 in0.0 mm 0.00 in0.0 mm
03:01 PM 74.1°F23.4°C 62.4°F16.9°C 67% 7.6 mph SSW12.2 kmh SSW 12.8 mph20.6 kmh 29.83 in1010.2 mb 0.00 in0.0 mm 0.00 in0.0 mm 0.00 in0.0 mm
03:06 PM 73.9°F23.3°C 61.9°F16.6°C 66% 5.8 mph SW9.3 kmh SW 9.6 mph15.4 kmh 29.83 in1010.2 mb 0.00 in0.0 mm 0.00 in0.0 mm 0.00 in0.0 mm
03:11 PM 73.8°F23.2°C 61.3°F16.3°C 65% 6.0 mph SSW9.7 kmh SSW 10.5 mph16.9 kmh 29.83 in1010.2 mb 0.00 in0.0 mm 0.00 in0.0 mm 0.00 in0.0 mm
03:16 PM 73.2°F22.9°C 60.3°F15.7°C 64% 7.8 mph SW12.6 kmh SW 11.6 mph18.7 kmh 29.83 in1010.2 mb 0.00 in0.0 mm 0.00 in0.0 mm 0.00 in0.0 mm
03:21 PM 73.0°F22.8°C 61.9°F16.6°C 68% 6.0 mph SW9.7 kmh SW 9.6 mph15.4 kmh 29.83 in1010.2 mb 0.00 in0.0 mm 0.00 in0.0 mm 0.00 in0.0 mm
03:26 PM 72.7°F22.6°C 61.9°F16.6°C 69% 5.8 mph SSW9.3 kmh SSW 8.5 mph13.7 kmh 29.83 in1010.2 mb 0.00 in0.0 mm 0.00 in0.0 mm 0.00 in0.0 mm
03:31 PM 72.7°F22.6°C 61.9°F16.6°C 69% 5.4 mph WSW8.7 kmh WSW 7.4 mph11.9 kmh 29.83 in1010.2 mb 0.00 in0.0 mm 0.00 in0.0 mm 0.00 in0.0 mm
03:36 PM 72.3°F22.4°C 61.5°F16.4°C 69% 4.7 mph SW7.6 kmh SW 9.6 mph15.4 kmh 29.84 in1010.5 mb 0.00 in0.0 mm 0.00 in0.0 mm 0.00 in0.0 mm
03:41 PM 72.5°F22.5°C 61.7°F16.5°C 69% 4.3 mph W6.9 kmh W 8.5 mph13.7 kmh 29.84 in1010.5 mb 0.00 in0.0 mm 0.00 in0.0 mm 0.00 in0.0 mm
03:46 PM 72.9°F22.7°C 62.4°F16.9°C 70% 5.1 mph S8.2 kmh S 9.6 mph15.4 kmh 29.84 in1010.5 mb 0.00 in0.0 mm 0.00 in0.0 mm 0.00 in0.0 mm
03:51 PM 73.0°F22.8°C 61.5°F16.4°C 67% 5.4 mph WNW8.7 kmh WNW 11.6 mph18.7 kmh 29.84 in1010.5 mb 0.00 in0.0 mm 0.00 in0.0 mm 0.00 in0.0 mm
03:56 PM 73.2°F22.9°C 61.2°F16.2°C 66% 4.9 mph WSW7.9 kmh WSW 9.6 mph15.4 kmh 29.84 in1010.5 mb 0.00 in0.0 mm 0.00 in0.0 mm 0.00 in0.0 mm
04:01 PM 73.2°F22.9°C 60.8°F16.0°C 65% 5.4 mph S8.7 kmh S 10.5 mph16.9 kmh 29.84 in1010.5 mb 0.00 in0.0 mm 0.00 in0.0 mm 0.00 in0.0 mm
04:06 PM 73.2°F22.9°C 60.3°F15.7°C 64% 7.2 mph SW11.6 kmh SW 13.9 mph22.4 kmh 29.84 in1010.5 mb 0.00 in0.0 mm 0.00 in0.0 mm 0.00 in0.0 mm
04:11 PM 73.6°F23.1°C 61.2°F16.2°C 65% 5.6 mph S9.0 kmh S 9.6 mph15.4 kmh 29.84 in1010.5 mb 0.00 in0.0 mm 0.00 in0.0 mm 0.00 in0.0 mm
04:16 PM 73.6°F23.1°C 61.2°F16.2°C 65% 4.7 mph SW7.6 kmh SW 11.6 mph18.7 kmh 29.84 in1010.5 mb 0.00 in0.0 mm 0.00 in0.0 mm 0.00 in0.0 mm
04:21 PM 73.6°F23.1°C 61.5°F16.4°C 66% 4.3 mph SSW6.9 kmh SSW 9.6 mph15.4 kmh 29.84 in1010.5 mb 0.00 in0.0 mm 0.00 in0.0 mm 0.00 in0.0 mm
04:26 PM 72.7°F22.6°C 60.3°F15.7°C 65% 5.6 mph SW9.0 kmh SW 10.5 mph16.9 kmh 29.84 in1010.5 mb 0.00 in0.0 mm 0.00 in0.0 mm 0.00 in0.0 mm
04:31 PM 72.3°F22.4°C 60.8°F16.0°C 67% 5.4 mph WSW8.7 kmh WSW 8.5 mph13.7 kmh 29.84 in1010.5 mb 0.00 in0.0 mm 0.00 in0.0 mm 0.00 in0.0 mm
04:36 PM 72.3°F22.4°C 61.2°F16.2°C 68% 4.9 mph WSW7.9 kmh WSW 9.6 mph15.4 kmh 29.84 in1010.5 mb 0.00 in0.0 mm 0.00 in0.0 mm 0.00 in0.0 mm
04:41 PM 72.0°F22.2°C 62.1°F16.7°C 71% 5.1 mph WSW8.2 kmh WSW 8.5 mph13.7 kmh 29.84 in1010.5 mb 0.00 in0.0 mm 0.00 in0.0 mm 0.00 in0.0 mm
04:46 PM 71.4°F21.9°C 61.9°F16.6°C 72% 4.7 mph SSE7.6 kmh SSE 7.4 mph11.9 kmh 29.84 in1010.5 mb 0.00 in0.0 mm 0.00 in0.0 mm 0.00 in0.0 mm
04:51 PM 70.9°F21.6°C 62.2°F16.8°C 74% 4.9 mph SW7.9 kmh SW 7.4 mph11.9 kmh 29.84 in1010.5 mb 0.00 in0.0 mm 0.00 in0.0 mm 0.00 in0.0 mm
04:56 PM 70.5°F21.4°C 62.6°F17.0°C 76% 3.4 mph SW5.5 kmh SW 7.4 mph11.9 kmh 29.84 in1010.5 mb 0.00 in0.0 mm 0.00 in0.0 mm 0.00 in0.0 mm
05:01 PM 70.5°F21.4°C 62.6°F17.0°C 76% 4.7 mph SW7.6 kmh SW 8.5 mph13.7 kmh 29.84 in1010.5 mb 0.00 in0.0 mm 0.00 in0.0 mm 0.00 in0.0 mm
05:06 PM 70.2°F21.2°C 62.6°F17.0°C 77% 4.3 mph S6.9 kmh S 8.5 mph13.7 kmh 29.85 in1010.8 mb 0.00 in0.0 mm 0.00 in0.0 mm 0.00 in0.0 mm
05:11 PM 69.6°F20.9°C 62.8°F17.1°C 79% 3.1 mph SW5.0 kmh SW 8.5 mph13.7 kmh 29.85 in1010.8 mb 0.00 in0.0 mm 0.00 in0.0 mm 0.00 in0.0 mm
05:16 PM 69.6°F20.9°C 63.1°F17.3°C 80% 2.0 mph SW3.2 kmh SW 5.4 mph8.7 kmh 29.85 in1010.8 mb 0.00 in0.0 mm 0.00 in0.0 mm 0.00 in0.0 mm
05:21 PM 69.4°F20.8°C 63.0°F17.2°C 80% 1.8 mph SW2.9 kmh SW 5.4 mph8.7 kmh 29.85 in1010.8 mb 0.00 in0.0 mm 0.00 in0.0 mm 0.00 in0.0 mm
05:26 PM 69.3°F20.7°C 62.8°F17.1°C 80% 2.0 mph SW3.2 kmh SW 5.4 mph8.7 kmh 29.85 in1010.8 mb 0.00 in0.0 mm 0.00 in0.0 mm 0.00 in0.0 mm
05:31 PM 69.1°F20.6°C 63.0°F17.2°C 81% 2.5 mph SSW4.0 kmh SSW 6.3 mph10.1 kmh 29.86 in1011.2 mb 0.00 in0.0 mm 0.00 in0.0 mm 0.00 in0.0 mm
05:36 PM 68.9°F20.5°C 63.1°F17.3°C 82% 2.5 mph SW4.0 kmh SW 6.3 mph10.1 kmh 29.86 in1011.2 mb 0.00 in0.0 mm 0.00 in0.0 mm 0.00 in0.0 mm
05:41 PM 68.7°F20.4°C 63.0°F17.2°C 82% 2.0 mph SW3.2 kmh SW 6.3 mph10.1 kmh 29.86 in1011.2 mb 0.00 in0.0 mm 0.00 in0.0 mm 0.00 in0.0 mm
05:46 PM 68.5°F20.3°C 62.8°F17.1°C 82% 1.8 mph SW2.9 kmh SW 3.1 mph5.0 kmh 29.85 in1010.8 mb 0.00 in0.0 mm 0.00 in0.0 mm 0.00 in0.0 mm
05:51 PM 68.4°F20.2°C 62.6°F17.0°C 82% 2.5 mph SSW4.0 kmh SSW 4.3 mph6.9 kmh 29.85 in1010.8 mb 0.00 in0.0 mm 0.00 in0.0 mm 0.00 in0.0 mm
05:56 PM 68.2°F20.1°C 62.4°F16.9°C 82% 1.3 mph SSW2.1 kmh SSW 4.3 mph6.9 kmh 29.85 in1010.8 mb 0.00 in0.0 mm 0.00 in0.0 mm 0.00 in0.0 mm
06:01 PM 68.2°F20.1°C 62.4°F16.9°C 82% 0.9 mph SW1.4 kmh SW 3.1 mph5.0 kmh 29.85 in1010.8 mb 0.00 in0.0 mm 0.00 in0.0 mm 0.00 in0.0 mm
06:06 PM 68.2°F20.1°C 62.4°F16.9°C 82% 0.7 mph SW1.1 kmh SW 4.3 mph6.9 kmh 29.85 in1010.8 mb 0.00 in0.0 mm 0.00 in0.0 mm 0.00 in0.0 mm
06:11 PM 67.8°F19.9°C 62.1°F16.7°C 82% 2.2 mph SSW3.5 kmh SSW 4.3 mph6.9 kmh 29.86 in1011.2 mb 0.00 in0.0 mm 0.00 in0.0 mm 0.00 in0.0 mm
06:16 PM 67.8°F19.9°C 62.4°F16.9°C 83% 1.8 mph W2.9 kmh W 3.1 mph5.0 kmh 29.86 in1011.2 mb 0.00 in0.0 mm 0.00 in0.0 mm 0.00 in0.0 mm
06:21 PM 67.6°F19.8°C 62.2°F16.8°C 83% 0.2 mph SW0.3 kmh SW 2.0 mph3.2 kmh 29.86 in1011.2 mb 0.00 in0.0 mm 0.00 in0.0 mm 0.00 in0.0 mm
06:26 PM 67.6°F19.8°C 62.6°F17.0°C 84% Calm Calm 3.1 mph5.0 kmh 29.86 in1011.2 mb 0.00 in0.0 mm 0.00 in0.0 mm 0.00 in0.0 mm
06:31 PM 67.5°F19.7°C 62.4°F16.9°C 84% Calm Calm -- 29.86 in1011.2 mb 0.00 in0.0 mm 0.00 in0.0 mm 0.00 in0.0 mm
06:36 PM 67.3°F19.6°C 62.2°F16.8°C 84% Calm Calm -- 29.86 in1011.2 mb 0.00 in0.0 mm 0.00 in0.0 mm 0.00 in0.0 mm
06:41 PM 67.1°F19.5°C 62.1°F16.7°C 84% Calm Calm -- 29.85 in1010.8 mb 0.00 in0.0 mm 0.00 in0.0 mm 0.00 in0.0 mm
06:46 PM 66.9°F19.4°C 61.9°F16.6°C 84% Calm Calm -- 29.86 in1011.2 mb 0.00 in0.0 mm 0.00 in0.0 mm 0.00 in0.0 mm
06:51 PM 66.9°F19.4°C 62.2°F16.8°C 85% Calm Calm -- 29.86 in1011.2 mb 0.00 in0.0 mm 0.00 in0.0 mm 0.00 in0.0 mm
06:56 PM 66.9°F19.4°C 62.2°F16.8°C 85% 0.7 mph SW1.1 kmh SW 3.1 mph5.0 kmh 29.86 in1011.2 mb 0.00 in0.0 mm 0.00 in0.0 mm 0.00 in0.0 mm
07:01 PM 66.7°F19.3°C 62.1°F16.7°C 85% Calm Calm 3.1 mph5.0 kmh 29.86 in1011.2 mb 0.00 in0.0 mm 0.00 in0.0 mm 0.00 in0.0 mm
07:06 PM 66.7°F19.3°C 62.1°F16.7°C 85% Calm Calm -- 29.86 in1011.2 mb 0.00 in0.0 mm 0.00 in0.0 mm 0.00 in0.0 mm
07:11 PM 66.7°F19.3°C 62.1°F16.7°C 85% Calm Calm -- 29.86 in1011.2 mb 0.00 in0.0 mm 0.00 in0.0 mm 0.00 in0.0 mm
07:16 PM 66.7°F19.3°C 62.1°F16.7°C 85% Calm Calm -- 29.86 in1011.2 mb 0.00 in0.0 mm 0.00 in0.0 mm 0.00 in0.0 mm
07:21 PM 66.6°F19.2°C 61.9°F16.6°C 85% Calm Calm -- 29.86 in1011.2 mb 0.00 in0.0 mm 0.00 in0.0 mm 0.00 in0.0 mm
07:26 PM 66.6°F19.2°C 62.2°F16.8°C 86% Calm Calm -- 29.86 in1011.2 mb 0.00 in0.0 mm 0.00 in0.0 mm 0.00 in0.0 mm
07:31 PM 66.4°F19.1°C 62.1°F16.7°C 86% Calm Calm -- 29.86 in1011.2 mb 0.00 in0.0 mm 0.00 in0.0 mm 0.00 in0.0 mm
07:36 PM 66.4°F19.1°C 62.1°F16.7°C 86% Calm Calm -- 29.86 in1011.2 mb 0.00 in0.0 mm 0.00 in0.0 mm 0.00 in0.0 mm
07:41 PM 66.2°F19.0°C 61.9°F16.6°C 86% Calm Calm -- 29.87 in1011.5 mb 0.00 in0.0 mm 0.00 in0.0 mm 0.00 in0.0 mm
07:46 PM 66.2°F19.0°C 61.9°F16.6°C 86% Calm Calm -- 29.86 in1011.2 mb 0.00 in0.0 mm 0.00 in0.0 mm 0.00 in0.0 mm
07:51 PM 66.0°F18.9°C 61.7°F16.5°C 86% Calm Calm -- 29.87 in1011.5 mb 0.00 in0.0 mm 0.00 in0.0 mm 0.00 in0.0 mm
07:56 PM 65.8°F18.8°C 61.5°F16.4°C 86% Calm Calm -- 29.87 in1011.5 mb 0.00 in0.0 mm 0.00 in0.0 mm 0.00 in0.0 mm
08:01 PM 65.7°F18.7°C 61.3°F16.3°C 86% Calm Calm -- 29.87 in1011.5 mb 0.00 in0.0 mm 0.00 in0.0 mm 0.00 in0.0 mm
08:06 PM 65.5°F18.6°C 61.5°F16.4°C 87% Calm Calm -- 29.87 in1011.5 mb 0.00 in0.0 mm 0.00 in0.0 mm 0.00 in0.0 mm
08:11 PM 65.5°F18.6°C 61.5°F16.4°C 87% Calm Calm -- 29.87 in1011.5 mb 0.00 in0.0 mm 0.00 in0.0 mm 0.00 in0.0 mm
08:16 PM 65.3°F18.5°C 61.3°F16.3°C 87% Calm Calm -- 29.87 in1011.5 mb 0.00 in0.0 mm 0.00 in0.0 mm 0.00 in0.0 mm
08:21 PM 65.1°F18.4°C 61.2°F16.2°C 87% Calm Calm -- 29.87 in1011.5 mb 0.00 in0.0 mm 0.00 in0.0 mm 0.00 in0.0 mm
08:26 PM 65.1°F18.4°C 61.2°F16.2°C 87% Calm Calm -- 29.87 in1011.5 mb 0.00 in0.0 mm 0.00 in0.0 mm 0.00 in0.0 mm
08:31 PM 65.1°F18.4°C 61.5°F16.4°C 88% Calm Calm -- 29.87 in1011.5 mb 0.00 in0.0 mm 0.00 in0.0 mm 0.00 in0.0 mm
08:36 PM 64.9°F18.3°C 61.0°F16.1°C 87% Calm Calm -- 29.87 in1011.5 mb 0.00 in0.0 mm 0.00 in0.0 mm 0.00 in0.0 mm
08:41 PM 64.9°F18.3°C 61.0°F16.1°C 87% Calm Calm -- 29.87 in1011.5 mb 0.00 in0.0 mm 0.00 in0.0 mm 0.00 in0.0 mm
08:46 PM 64.9°F18.3°C 61.3°F16.3°C 88% Calm Calm -- 29.87 in1011.5 mb 0.00 in0.0 mm 0.00 in0.0 mm 0.00 in0.0 mm
08:51 PM 65.1°F18.4°C 61.9°F16.6°C 89% Calm Calm -- 29.88 in1011.9 mb 0.00 in0.0 mm 0.00 in0.0 mm 0.00 in0.0 mm
08:56 PM 65.1°F18.4°C 61.5°F16.4°C 88% Calm Calm -- 29.87 in1011.5 mb 0.00 in0.0 mm 0.00 in0.0 mm 0.00 in0.0 mm
09:01 PM 65.1°F18.4°C 61.5°F16.4°C 88% Calm Calm -- 29.87 in1011.5 mb 0.00 in0.0 mm 0.00 in0.0 mm 0.00 in0.0 mm
09:06 PM 65.1°F18.4°C 61.5°F16.4°C 88% Calm Calm -- 29.87 in1011.5 mb 0.00 in0.0 mm 0.00 in0.0 mm 0.00 in0.0 mm
09:11 PM 64.9°F18.3°C 61.3°F16.3°C 88% Calm Calm -- 29.87 in1011.5 mb 0.00 in0.0 mm 0.00 in0.0 mm 0.00 in0.0 mm
09:16 PM 64.9°F18.3°C 61.7°F16.5°C 89% Calm Calm -- 29.88 in1011.9 mb 0.00 in0.0 mm 0.00 in0.0 mm 0.00 in0.0 mm
09:21 PM 64.9°F18.3°C 61.7°F16.5°C 89% Calm Calm -- 29.88 in1011.9 mb 0.00 in0.0 mm 0.00 in0.0 mm 0.00 in0.0 mm
09:26 PM 64.8°F18.2°C 61.5°F16.4°C 89% Calm Calm -- 29.88 in1011.9 mb 0.00 in0.0 mm 0.00 in0.0 mm 0.00 in0.0 mm
09:31 PM 64.8°F18.2°C 61.5°F16.4°C 89% Calm Calm -- 29.88 in1011.9 mb 0.00 in0.0 mm 0.00 in0.0 mm 0.00 in0.0 mm
09:36 PM 64.9°F18.3°C 61.7°F16.5°C 89% Calm Calm -- 29.88 in1011.9 mb 0.00 in0.0 mm 0.00 in0.0 mm 0.00 in0.0 mm
09:41 PM 64.9°F18.3°C 61.7°F16.5°C 89% Calm Calm -- 29.88 in1011.9 mb 0.00 in0.0 mm 0.00 in0.0 mm 0.00 in0.0 mm
09:46 PM 64.9°F18.3°C 61.7°F16.5°C 89% Calm Calm -- 29.88 in1011.9 mb 0.00 in0.0 mm 0.00 in0.0 mm 0.00 in0.0 mm
09:51 PM 64.9°F18.3°C 61.7°F16.5°C 89% Calm Calm -- 29.88 in1011.9 mb 0.00 in0.0 mm 0.00 in0.0 mm 0.00 in0.0 mm
09:56 PM 64.9°F18.3°C 61.7°F16.5°C 89% Calm Calm -- 29.88 in1011.9 mb 0.00 in0.0 mm 0.00 in0.0 mm 0.00 in0.0 mm
10:01 PM 64.9°F18.3°C 61.9°F16.6°C 90% Calm Calm -- 29.88 in1011.9 mb 0.00 in0.0 mm 0.00 in0.0 mm 0.00 in0.0 mm
10:06 PM 65.1°F18.4°C 61.9°F16.6°C 89% Calm Calm -- 29.88 in1011.9 mb 0.00 in0.0 mm 0.00 in0.0 mm 0.00 in0.0 mm
10:11 PM 65.1°F18.4°C 61.9°F16.6°C 89% Calm Calm -- 29.88 in1011.9 mb 0.00 in0.0 mm 0.00 in0.0 mm 0.00 in0.0 mm
10:16 PM 65.3°F18.5°C 62.2°F16.8°C 90% Calm Calm -- 29.88 in1011.9 mb 0.00 in0.0 mm 0.00 in0.0 mm 0.00 in0.0 mm
10:21 PM 65.5°F18.6°C 62.2°F16.8°C 89% Calm Calm -- 29.88 in1011.9 mb 0.00 in0.0 mm 0.00 in0.0 mm 0.00 in0.0 mm
10:26 PM 65.3°F18.5°C 62.1°F16.7°C 89% Calm Calm -- 29.88 in1011.9 mb 0.00 in0.0 mm 0.00 in0.0 mm 0.00 in0.0 mm
10:31 PM 65.3°F18.5°C 62.1°F16.7°C 89% Calm Calm -- 29.88 in1011.9 mb 0.00 in0.0 mm 0.00 in0.0 mm 0.00 in0.0 mm
10:36 PM 65.3°F18.5°C 62.1°F16.7°C 89% Calm Calm -- 29.88 in1011.9 mb 0.00 in0.0 mm 0.00 in0.0 mm 0.00 in0.0 mm
10:41 PM 65.1°F18.4°C 61.9°F16.6°C 89% Calm Calm -- 29.88 in1011.9 mb 0.00 in0.0 mm 0.00 in0.0 mm 0.00 in0.0 mm
10:46 PM 65.1°F18.4°C 61.9°F16.6°C 89% Calm Calm -- 29.88 in1011.9 mb 0.00 in0.0 mm 0.00 in0.0 mm 0.00 in0.0 mm
10:51 PM 65.1°F18.4°C 61.9°F16.6°C 89% Calm Calm -- 29.88 in1011.9 mb 0.00 in0.0 mm 0.00 in0.0 mm 0.00 in0.0 mm
10:56 PM 65.3°F18.5°C 62.1°F16.7°C 89% Calm Calm -- 29.88 in1011.9 mb 0.00 in0.0 mm 0.00 in0.0 mm 0.00 in0.0 mm
11:01 PM 65.3°F18.5°C 62.1°F16.7°C 89% Calm Calm -- 29.88 in1011.9 mb 0.00 in0.0 mm 0.00 in0.0 mm 0.00 in0.0 mm
11:06 PM 65.5°F18.6°C 62.2°F16.8°C 89% Calm Calm -- 29.88 in1011.9 mb 0.00 in0.0 mm 0.00 in0.0 mm 0.00 in0.0 mm
11:11 PM 65.5°F18.6°C 62.2°F16.8°C 89% Calm Calm -- 29.88 in1011.9 mb 0.00 in0.0 mm 0.00 in0.0 mm 0.00 in0.0 mm
11:16 PM 65.5°F18.6°C 62.2°F16.8°C 89% Calm Calm -- 29.88 in1011.9 mb 0.00 in0.0 mm 0.00 in0.0 mm 0.00 in0.0 mm
11:21 PM 65.7°F18.7°C 62.2°F16.8°C 89% Calm Calm -- 29.88 in1011.9 mb 0.00 in0.0 mm 0.00 in0.0 mm 0.00 in0.0 mm
11:26 PM 65.7°F18.7°C 62.2°F16.8°C 89% Calm Calm -- 29.88 in1011.9 mb 0.00 in0.0 mm 0.00 in0.0 mm 0.00 in0.0 mm
11:31 PM 65.7°F18.7°C 62.2°F16.8°C 89% Calm Calm -- 29.88 in1011.9 mb 0.00 in0.0 mm 0.00 in0.0 mm 0.00 in0.0 mm
11:36 PM 65.5°F18.6°C 62.2°F16.8°C 89% Calm Calm -- 29.88 in1011.9 mb 0.00 in0.0 mm 0.00 in0.0 mm 0.00 in0.0 mm
11:41 PM 65.7°F18.7°C 62.2°F16.8°C 89% Calm Calm -- 29.88 in1011.9 mb 0.00 in0.0 mm 0.00 in0.0 mm 0.00 in0.0 mm
11:46 PM 65.5°F18.6°C 62.2°F16.8°C 89% Calm Calm -- 29.88 in1011.9 mb 0.00 in0.0 mm 0.00 in0.0 mm 0.00 in0.0 mm
11:51 PM 65.5°F18.6°C 62.2°F16.8°C 89% Calm Calm -- 29.88 in1011.9 mb 0.00 in0.0 mm 0.00 in0.0 mm 0.00 in0.0 mm
11:56 PM 65.1°F18.4°C 61.9°F16.6°C 89% Calm Calm -- 29.88 in1011.9 mb 0.00 in0.0 mm 0.00 in0.0 mm 0.00 in0.0 mm